Aviation Digital Data Service (ADDS)

Output produced by TAFs form (0454 UTC 30 March 2017)
found at http://www.aviationweather.gov/adds/tafs/
 
METAR text: RJBB 300430Z 20004KT 160V280 9999 FEW035 BKN/// 15/10 Q1018 NOSIG
Conditions at: RJBB (KANSAI INTL , JP) observed 0430 UTC 30 March 2017
Temperature: 15.0°C (59°F)
Dewpoint: 10.0°C (50°F) [RH = 72%]
Pressure (altimeter): 30.06 inches Hg (1018.0 mb)
Winds: from the SSW (200 degrees) at 5 MPH (4 knots; 2.1 m/s)
Visibility: 6 or more miles (10+ km)
Ceiling: at least 12,000 feet AGL
Clouds: few clouds at 3500 feet AGL
Weather: no significant weather observed at this time

Forecast for: RJBB (KANSAI INTL , JP)
Text: TAF AMD RJBB 300215Z 3002/3106 29006KT 9999 FEW030
Forecast period: 0200 to 0900 UTC 30 March 2017
Forecast type: FROM: standard forecast or significant change
Winds: from the WNW (290 degrees) at 7 MPH (6 knots; 3.1 m/s)
Visibility: 6 or more miles (10+ km)
Clouds: few clouds at 3000 feet AGL
Weather: no significant weather forecast for this period
Text: BECMG 3009/3011 02012KT
Forecast period: 0900 UTC 30 March 2017 to 0600 UTC 31 March 2017
Forecast type: BECOMING: Conditions expected to become as follows by 1100 UTC 30 March 2017
Winds: from the NNE (20 degrees) at 14 MPH (12 knots; 6.2 m/s)
Visibility: 6 or more miles (10+ km)
Clouds: few clouds at 3000 feet AGL
Weather: no significant weather forecast for this period